Bei Facebook empfehlenBei Twitter postenGoogle plusPinterest

Das Wetter im Erzgebirge am 21.06.2016

Wetter und Klima am 21.06.2016 Holzhau im Erzgebirge (630m ü.NN)
Letzte gemessene Temperatur und Uhrzeit der Messung23:45:00 Uhr11.30 °C
Temperatur (Maximum / Höchstwert) und Uhrzeit der Messung17:30:00 Uhr22.50 °C
Temperatur (Minimum / Tiefstwert) und Uhrzeit der Messung23:45:0011.30 °C
Errechneter Absolutwert der Temperaturschwankungen zwischen Tmin und Tmax des Tages11.20 K
Errechnete Tagesmitteltemperatur15.88021 °C
Gesamt - Niederschlag des Tages (in flüssiger Form)0.00 Liter / m²
Luftdruck (Maximum / Höchstwert) und Zeitpunkt der Messung23:45:00 Uhr1020.80 hPa
Luftdruck (Minimum / Tiefstwert) und Zeitpunkt der Messung04:45:00 Uhr1015.10 hPa
Errechneter Absolutwert der Luftdruckschwankungen des Tages5.70 hPa
Höchste gemessene Windgeschwindigkeit und Uhrzeit der Messung23:45:00 Uhr0.00 km/h
Errechnete Windhäufigkeit in Relation zu den Messwerten des Tages0.00000 %
Niedrigste Windkühle (Windchill) und Zeitpunkt der Messung23:45:00 Uhr11.30 °C
Taupunkt (Maximum / Höchstwert) und Uhrzeit der Messung17:30:00 Uhr15.10 °C
Taupunkt (Minimum / Tiefstwert) und Uhrzeit der Messung23:45:009.60 °C
Anzahl der automatisch eingelesenen Messwerte 96

Detaillierte Wetter- und Klima- Messwerte für den 21.06.2016 in Holzhau im Erzgebirge (630m ü.NN)
ZeitTemperaturLuftdruckRel. LuftfeuchteWindWindrichtungWindchillTaupunktNiederschlag l/m²
23:45:0011.30 °C1020.80 hPa89.00 %9.60 °C 
23:30:0011.30 °C1020.60 hPa89.00 %9.60 °C 
23:15:0011.60 °C1020.50 hPa88.00 %9.70 °C 
23:00:0011.80 °C1020.60 hPa87.00 %9.70 °C 
22:45:0011.90 °C1020.30 hPa87.00 %9.80 °C 
22:30:0012.10 °C1020.40 hPa85.00 %9.70 °C 
22:15:0012.50 °C1020.20 hPa84.00 %9.90 °C 
22:00:0013.10 °C1020.30 hPa83.00 %10.30 °C 
21:45:0013.60 °C1019.90 hPa82.00 %10.60 °C 
21:30:0014.10 °C1019.80 hPa80.00 %10.70 °C 
21:15:0014.90 °C1019.80 hPa78.00 %11.10 °C 
21:00:0015.90 °C1019.60 hPa76.00 %11.70 °C 
20:45:0017.20 °C1019.40 hPa72.00 %12.10 °C 
20:30:0018.10 °C1019.50 hPa70.00 %12.50 °C 
20:15:0018.70 °C1019.50 hPa69.00 %12.90 °C 
20:00:0019.30 °C1019.40 hPa69.00 %13.50 °C 
19:45:0019.50 °C1019.30 hPa68.00 %13.40 °C 
19:30:0019.80 °C1019.20 hPa68.00 %13.70 °C 
19:15:0019.90 °C1019.20 hPa67.00 %13.60 °C 
19:00:0020.50 °C1019.10 hPa66.00 %13.90 °C 
18:45:0020.60 °C1019.30 hPa67.00 %14.30 °C 
18:30:0020.90 °C1019.20 hPa66.00 %14.30 °C 
18:15:0021.30 °C1019.20 hPa64.00 %14.20 °C 
18:00:0022.00 °C1019.30 hPa62.00 %14.40 °C 
17:45:0022.40 °C1019.00 hPa62.00 %14.80 °C 
17:30:0022.50 °C1019.00 hPa63.00 %15.10 °C 
17:15:0021.40 °C1018.90 hPa65.00 %14.60 °C 
17:00:0020.90 °C1019.10 hPa66.00 %14.30 °C 
16:45:0020.50 °C1018.90 hPa66.00 %13.90 °C 
16:30:0020.70 °C1019.10 hPa65.00 %13.90 °C 
16:15:0021.50 °C1018.80 hPa64.00 %14.40 °C 
16:00:0022.10 °C1018.80 hPa63.00 %14.70 °C 
15:45:0021.80 °C1018.90 hPa64.00 %14.70 °C 
15:30:0021.60 °C1018.90 hPa65.00 %14.70 °C 
15:15:0020.90 °C1018.80 hPa66.00 %14.30 °C 
15:00:0020.10 °C1018.90 hPa67.00 %13.80 °C 
14:45:0020.60 °C1018.80 hPa66.00 %14.00 °C 
14:30:0021.00 °C1018.80 hPa67.00 %14.60 °C 
14:15:0020.50 °C1018.80 hPa68.00 %14.40 °C 
14:00:0020.10 °C1018.60 hPa71.00 %14.70 °C 
13:45:0019.00 °C1018.70 hPa73.00 %14.10 °C 
13:30:0018.30 °C1018.60 hPa74.00 %13.60 °C 
13:15:0018.20 °C1018.50 hPa75.00 %13.70 °C 
13:00:0018.30 °C1018.40 hPa74.00 %13.60 °C 
12:45:0018.50 °C1018.10 hPa77.00 %14.40 °C 
12:30:0017.00 °C1018.20 hPa77.00 %12.90 °C 
12:15:0017.50 °C1018.30 hPa75.00 %13.00 °C 
12:00:0017.60 °C1018.10 hPa77.00 %13.50 °C 
11:45:0018.00 °C1018.00 hPa77.00 %13.90 °C 
11:30:0017.80 °C1017.80 hPa81.00 %14.50 °C 
11:15:0016.20 °C1017.70 hPa82.00 %13.10 °C 
11:00:0016.40 °C1017.40 hPa83.00 %13.50 °C 
10:45:0015.50 °C1017.30 hPa84.00 %12.80 °C 
10:30:0015.50 °C1017.10 hPa84.00 %12.80 °C 
10:15:0015.90 °C1016.90 hPa84.00 %13.20 °C 
10:00:0016.30 °C1016.80 hPa86.00 %14.00 °C 
09:45:0016.20 °C1016.60 hPa88.00 %14.20 °C 
09:30:0015.20 °C1016.50 hPa89.00 %13.40 °C 
09:15:0014.60 °C1016.40 hPa89.00 %12.80 °C 
09:00:0014.40 °C1016.30 hPa88.00 %12.40 °C 
08:45:0014.30 °C1016.20 hPa88.00 %12.30 °C 
08:30:0014.30 °C1016.10 hPa88.00 %12.30 °C 
08:15:0014.50 °C1016.00 hPa89.00 %12.70 °C 
08:00:0014.70 °C1015.70 hPa90.00 %13.10 °C 
07:45:0014.80 °C1015.60 hPa91.00 %13.30 °C 
07:30:0014.30 °C1015.40 hPa92.00 %13.00 °C 
07:15:0013.70 °C1015.50 hPa93.00 %12.60 °C 
07:00:0013.30 °C1015.60 hPa93.00 %12.20 °C 
06:45:0012.90 °C1015.40 hPa93.00 %11.80 °C 
06:30:0012.50 °C1015.60 hPa92.00 %11.20 °C 
06:15:0012.20 °C1015.60 hPa92.00 %10.90 °C 
06:00:0012.20 °C1015.50 hPa92.00 %10.90 °C 
05:45:0012.20 °C1015.60 hPa92.00 %10.90 °C 
05:30:0012.10 °C1015.40 hPa92.00 %10.80 °C 
05:15:0012.20 °C1015.30 hPa92.00 %10.90 °C 
05:00:0012.10 °C1015.20 hPa92.00 %10.80 °C 
04:45:0012.20 °C1015.10 hPa92.00 %10.90 °C 
04:30:0012.30 °C1015.20 hPa92.00 %11.00 °C 
04:15:0012.50 °C1015.20 hPa92.00 %11.20 °C 
04:00:0012.60 °C1015.20 hPa92.00 %11.30 °C 
03:45:0012.70 °C1015.20 hPa92.00 %11.40 °C 
03:30:0012.60 °C1015.20 hPa91.00 %11.20 °C 
03:15:0012.60 °C1015.30 hPa92.00 %11.30 °C 
03:00:0012.40 °C1015.40 hPa91.00 %11.00 °C 
02:45:0012.40 °C1015.40 hPa91.00 %11.00 °C 
02:30:0012.30 °C1015.40 hPa91.00 %10.90 °C 
02:15:0012.10 °C1015.30 hPa91.00 %10.70 °C 
02:00:0011.80 °C1015.40 hPa91.00 %10.40 °C 
01:45:0011.80 °C1015.40 hPa90.00 %10.20 °C 
01:30:0011.80 °C1015.50 hPa90.00 %10.20 °C 
01:15:0011.90 °C1015.80 hPa89.00 %10.10 °C 
01:00:0011.90 °C1015.80 hPa89.00 %10.10 °C 
00:45:0012.10 °C1015.90 hPa89.00 %10.30 °C 
00:30:0012.30 °C1015.80 hPa89.00 %10.50 °C 
00:15:0012.50 °C1015.70 hPa89.00 %10.70 °C 
00:00:0012.50 °C1015.70 hPa88.00 %10.60 °C 

Permanenter Link zu dieser Seite: Wetter im Erzgebirge am 21.06.2016
Performance-Info: Die Erstellung der Seite / Statistik(en) / Tabelle(n) erforderte 5 Datenbankserver-Abfrage(n) und dauerte 99 Millisekunden. (Dieser Messwert ist von der Gesamt-Auslastung des Servers abhängig.)
Erzgebirge - Wetter | Erzgebirge - Wetter (Mobilgeräte) | Komplette Klimadatenbank